sensor_id;sensor_type;location;lat;lon;timestamp;P1;durP1;ratioP1;P2;durP2;ratioP2
323;SDS011;149;51.094;17.002;2022-12-08T00:01:20;8.70;;;5.72;;
323;SDS011;149;51.094;17.002;2022-12-08T00:03:48;10.50;;;6.05;;
323;SDS011;149;51.094;17.002;2022-12-08T00:06:22;8.15;;;5.75;;
323;SDS011;149;51.094;17.002;2022-12-08T00:09:18;8.32;;;5.85;;
323;SDS011;149;51.094;17.002;2022-12-08T00:12:00;10.35;;;5.88;;
323;SDS011;149;51.094;17.002;2022-12-08T00:14:33;8.30;;;6.55;;
323;SDS011;149;51.094;17.002;2022-12-08T00:17:02;5.82;;;5.20;;
323;SDS011;149;51.094;17.002;2022-12-08T00:19:30;7.90;;;5.45;;
323;SDS011;149;51.094;17.002;2022-12-08T00:21:57;7.47;;;5.53;;
323;SDS011;149;51.094;17.002;2022-12-08T00:24:28;7.03;;;5.55;;
323;SDS011;149;51.094;17.002;2022-12-08T00:26:56;10.27;;;6.72;;
323;SDS011;149;51.094;17.002;2022-12-08T00:29:23;7.05;;;5.97;;
323;SDS011;149;51.094;17.002;2022-12-08T00:31:52;6.57;;;5.00;;
323;SDS011;149;51.094;17.002;2022-12-08T00:34:19;8.68;;;7.18;;
323;SDS011;149;51.094;17.002;2022-12-08T00:36:46;12.13;;;6.72;;
323;SDS011;149;51.094;17.002;2022-12-08T00:39:14;8.68;;;5.88;;
323;SDS011;149;51.094;17.002;2022-12-08T00:41:42;9.70;;;6.53;;
323;SDS011;149;51.094;17.002;2022-12-08T00:44:28;9.25;;;5.45;;
323;SDS011;149;51.094;17.002;2022-12-08T00:46:55;9.95;;;6.72;;
323;SDS011;149;51.094;17.002;2022-12-08T00:49:22;8.75;;;6.70;;
323;SDS011;149;51.094;17.002;2022-12-08T00:51:50;10.05;;;7.43;;
323;SDS011;149;51.094;17.002;2022-12-08T00:54:17;12.07;;;6.40;;
323;SDS011;149;51.094;17.002;2022-12-08T00:56:44;7.82;;;6.90;;
323;SDS011;149;51.094;17.002;2022-12-08T00:59:11;9.18;;;7.18;;
323;SDS011;149;51.094;17.002;2022-12-08T01:01:39;7.45;;;6.30;;
323;SDS011;149;51.094;17.002;2022-12-08T01:04:09;8.43;;;7.18;;
323;SDS011;149;51.094;17.002;2022-12-08T01:06:40;12.55;;;7.85;;
323;SDS011;149;51.094;17.002;2022-12-08T01:09:08;8.68;;;7.60;;
323;SDS011;149;51.094;17.002;2022-12-08T01:11:37;10.73;;;6.90;;
323;SDS011;149;51.094;17.002;2022-12-08T01:14:04;8.32;;;6.57;;
323;SDS011;149;51.094;17.002;2022-12-08T01:16:32;10.93;;;7.53;;
323;SDS011;149;51.094;17.002;2022-12-08T01:19:01;11.45;;;7.65;;
323;SDS011;149;51.094;17.002;2022-12-08T01:21:28;9.25;;;7.70;;
323;SDS011;149;51.094;17.002;2022-12-08T01:23:57;19.15;;;8.60;;
323;SDS011;149;51.094;17.002;2022-12-08T01:26:25;10.52;;;8.70;;
323;SDS011;149;51.094;17.002;2022-12-08T01:28:52;8.18;;;7.38;;
323;SDS011;149;51.094;17.002;2022-12-08T01:31:20;8.65;;;6.82;;
323;SDS011;149;51.094;17.002;2022-12-08T01:33:50;10.05;;;7.72;;
323;SDS011;149;51.094;17.002;2022-12-08T01:36:20;9.50;;;7.10;;
323;SDS011;149;51.094;17.002;2022-12-08T01:38:52;7.40;;;5.60;;
323;SDS011;149;51.094;17.002;2022-12-08T01:41:22;8.00;;;5.68;;
323;SDS011;149;51.094;17.002;2022-12-08T01:46:30;8.23;;;7.32;;
323;SDS011;149;51.094;17.002;2022-12-08T01:49:08;8.73;;;7.75;;
323;SDS011;149;51.094;17.002;2022-12-08T01:51:59;10.13;;;7.50;;
323;SDS011;149;51.094;17.002;2022-12-08T01:54:34;14.52;;;9.55;;
323;SDS011;149;51.094;17.002;2022-12-08T01:57:20;11.52;;;8.65;;
323;SDS011;149;51.094;17.002;2022-12-08T02:00:13;12.38;;;9.65;;
323;SDS011;149;51.094;17.002;2022-12-08T02:05:32;13.93;;;9.93;;
323;SDS011;149;51.094;17.002;2022-12-08T02:08:02;11.98;;;9.45;;
323;SDS011;149;51.094;17.002;2022-12-08T02:10:33;15.82;;;9.23;;
323;SDS011;149;51.094;17.002;2022-12-08T02:13:02;12.45;;;9.18;;
323;SDS011;149;51.094;17.002;2022-12-08T02:15:41;11.95;;;8.65;;
323;SDS011;149;51.094;17.002;2022-12-08T02:18:33;14.52;;;10.20;;
323;SDS011;149;51.094;17.002;2022-12-08T02:26:39;13.98;;;9.65;;
323;SDS011;149;51.094;17.002;2022-12-08T02:32:10;14.65;;;9.77;;
323;SDS011;149;51.094;17.002;2022-12-08T02:37:25;14.02;;;8.73;;
323;SDS011;149;51.094;17.002;2022-12-08T02:42:57;13.95;;;10.27;;
323;SDS011;149;51.094;17.002;2022-12-08T02:45:36;12.23;;;9.50;;
323;SDS011;149;51.094;17.002;2022-12-08T02:48:09;13.60;;;9.65;;
323;SDS011;149;51.094;17.002;2022-12-08T02:50:36;13.02;;;9.65;;
323;SDS011;149;51.094;17.002;2022-12-08T02:53:03;14.45;;;10.05;;
323;SDS011;149;51.094;17.002;2022-12-08T02:58:28;16.60;;;10.95;;
323;SDS011;149;51.094;17.002;2022-12-08T03:06:41;14.05;;;9.65;;
323;SDS011;149;51.094;17.002;2022-12-08T03:14:57;13.70;;;9.40;;
323;SDS011;149;51.094;17.002;2022-12-08T03:17:28;12.23;;;8.40;;
323;SDS011;149;51.094;17.002;2022-12-08T03:19:57;10.70;;;7.80;;
323;SDS011;149;51.094;17.002;2022-12-08T03:22:29;15.00;;;9.90;;
323;SDS011;149;51.094;17.002;2022-12-08T03:24:58;12.77;;;8.93;;
323;SDS011;149;51.094;17.002;2022-12-08T03:27:28;9.88;;;8.70;;
323;SDS011;149;51.094;17.002;2022-12-08T03:29:58;13.73;;;8.98;;
323;SDS011;149;51.094;17.002;2022-12-08T03:32:39;11.00;;;8.57;;
323;SDS011;149;51.094;17.002;2022-12-08T03:35:14;13.10;;;9.18;;
323;SDS011;149;51.094;17.002;2022-12-08T03:38:04;10.60;;;7.93;;
323;SDS011;149;51.094;17.002;2022-12-08T03:40:32;11.60;;;8.40;;
323;SDS011;149;51.094;17.002;2022-12-08T03:43:00;14.93;;;10.00;;
323;SDS011;149;51.094;17.002;2022-12-08T03:45:27;10.70;;;8.68;;
323;SDS011;149;51.094;17.002;2022-12-08T03:47:55;12.30;;;9.25;;
323;SDS011;149;51.094;17.002;2022-12-08T03:50:22;12.38;;;9.13;;
323;SDS011;149;51.094;17.002;2022-12-08T03:52:50;13.20;;;10.02;;
323;SDS011;149;51.094;17.002;2022-12-08T03:55:16;9.90;;;8.90;;
323;SDS011;149;51.094;17.002;2022-12-08T03:57:44;11.50;;;9.73;;
323;SDS011;149;51.094;17.002;2022-12-08T04:00:14;12.88;;;9.25;;
323;SDS011;149;51.094;17.002;2022-12-08T04:02:42;11.05;;;9.35;;
323;SDS011;149;51.094;17.002;2022-12-08T04:05:09;11.68;;;9.35;;
323;SDS011;149;51.094;17.002;2022-12-08T04:07:36;9.57;;;8.25;;
323;SDS011;149;51.094;17.002;2022-12-08T04:10:04;10.80;;;9.50;;
323;SDS011;149;51.094;17.002;2022-12-08T04:12:32;15.05;;;10.10;;
323;SDS011;149;51.094;17.002;2022-12-08T04:14:58;11.18;;;8.60;;
323;SDS011;149;51.094;17.002;2022-12-08T04:17:26;10.10;;;8.57;;
323;SDS011;149;51.094;17.002;2022-12-08T04:19:53;12.15;;;9.00;;
323;SDS011;149;51.094;17.002;2022-12-08T04:22:20;11.10;;;9.88;;
323;SDS011;149;51.094;17.002;2022-12-08T04:24:47;13.15;;;10.85;;
323;SDS011;149;51.094;17.002;2022-12-08T04:27:13;11.50;;;10.32;;
323;SDS011;149;51.094;17.002;2022-12-08T04:29:41;13.10;;;10.57;;
323;SDS011;149;51.094;17.002;2022-12-08T04:32:08;9.80;;;8.55;;
323;SDS011;149;51.094;17.002;2022-12-08T04:34:34;10.75;;;9.65;;
323;SDS011;149;51.094;17.002;2022-12-08T04:37:01;10.73;;;9.65;;
323;SDS011;149;51.094;17.002;2022-12-08T04:39:28;11.15;;;9.35;;
323;SDS011;149;51.094;17.002;2022-12-08T04:41:55;12.80;;;9.93;;
323;SDS011;149;51.094;17.002;2022-12-08T04:44:22;13.68;;;10.88;;
323;SDS011;149;51.094;17.002;2022-12-08T04:46:49;14.52;;;11.20;;
323;SDS011;149;51.094;17.002;2022-12-08T04:49:16;14.38;;;10.57;;
323;SDS011;149;51.094;17.002;2022-12-08T04:51:43;14.27;;;10.05;;
323;SDS011;149;51.094;17.002;2022-12-08T04:54:10;11.43;;;9.18;;
323;SDS011;149;51.094;17.002;2022-12-08T04:56:37;12.48;;;10.13;;
323;SDS011;149;51.094;17.002;2022-12-08T04:59:04;13.07;;;11.05;;
323;SDS011;149;51.094;17.002;2022-12-08T05:01:31;19.85;;;9.40;;
323;SDS011;149;51.094;17.002;2022-12-08T05:03:58;12.90;;;10.30;;
323;SDS011;149;51.094;17.002;2022-12-08T05:06:25;11.15;;;10.15;;
323;SDS011;149;51.094;17.002;2022-12-08T05:08:52;12.73;;;9.65;;
323;SDS011;149;51.094;17.002;2022-12-08T05:11:20;17.05;;;9.63;;
323;SDS011;149;51.094;17.002;2022-12-08T05:13:47;15.00;;;10.43;;
323;SDS011;149;51.094;17.002;2022-12-08T05:16:14;13.70;;;10.48;;
323;SDS011;149;51.094;17.002;2022-12-08T05:18:42;12.27;;;10.13;;
323;SDS011;149;51.094;17.002;2022-12-08T05:21:09;16.98;;;11.35;;
323;SDS011;149;51.094;17.002;2022-12-08T05:23:36;17.08;;;10.73;;
323;SDS011;149;51.094;17.002;2022-12-08T05:26:03;15.02;;;11.40;;
323;SDS011;149;51.094;17.002;2022-12-08T05:28:31;14.32;;;9.93;;
323;SDS011;149;51.094;17.002;2022-12-08T05:31:09;11.35;;;10.13;;
323;SDS011;149;51.094;17.002;2022-12-08T05:33:43;13.80;;;12.30;;
323;SDS011;149;51.094;17.002;2022-12-08T05:36:13;14.70;;;11.55;;
323;SDS011;149;51.094;17.002;2022-12-08T05:38:43;15.75;;;12.05;;
323;SDS011;149;51.094;17.002;2022-12-08T05:41:15;14.85;;;11.93;;
323;SDS011;149;51.094;17.002;2022-12-08T05:43:45;16.85;;;11.95;;
323;SDS011;149;51.094;17.002;2022-12-08T05:46:43;16.10;;;11.93;;
323;SDS011;149;51.094;17.002;2022-12-08T05:49:10;15.18;;;12.20;;
323;SDS011;149;51.094;17.002;2022-12-08T05:51:40;14.63;;;11.32;;
323;SDS011;149;51.094;17.002;2022-12-08T05:54:11;17.70;;;11.63;;
323;SDS011;149;51.094;17.002;2022-12-08T05:56:39;17.45;;;11.95;;
323;SDS011;149;51.094;17.002;2022-12-08T05:59:17;15.30;;;12.15;;
323;SDS011;149;51.094;17.002;2022-12-08T06:01:50;15.23;;;12.90;;
323;SDS011;149;51.094;17.002;2022-12-08T06:04:17;16.25;;;12.15;;
323;SDS011;149;51.094;17.002;2022-12-08T06:06:44;15.23;;;11.48;;
323;SDS011;149;51.094;17.002;2022-12-08T06:09:11;15.77;;;12.68;;
323;SDS011;149;51.094;17.002;2022-12-08T06:11:38;14.45;;;12.98;;
323;SDS011;149;51.094;17.002;2022-12-08T06:14:09;17.83;;;12.73;;
323;SDS011;149;51.094;17.002;2022-12-08T06:16:37;18.27;;;12.57;;
323;SDS011;149;51.094;17.002;2022-12-08T06:19:04;16.08;;;13.32;;
323;SDS011;149;51.094;17.002;2022-12-08T06:21:31;22.02;;;15.32;;
323;SDS011;149;51.094;17.002;2022-12-08T06:23:58;13.75;;;12.10;;
323;SDS011;149;51.094;17.002;2022-12-08T06:26:25;12.80;;;11.30;;
323;SDS011;149;51.094;17.002;2022-12-08T06:28:52;18.08;;;12.15;;
323;SDS011;149;51.094;17.002;2022-12-08T06:31:23;15.57;;;11.65;;
323;SDS011;149;51.094;17.002;2022-12-08T06:33:51;14.00;;;11.23;;
323;SDS011;149;51.094;17.002;2022-12-08T06:36:21;13.68;;;11.52;;
323;SDS011;149;51.094;17.002;2022-12-08T06:38:50;16.98;;;12.20;;
323;SDS011;149;51.094;17.002;2022-12-08T06:41:17;16.65;;;13.13;;
323;SDS011;149;51.094;17.002;2022-12-08T06:43:44;18.70;;;12.32;;
323;SDS011;149;51.094;17.002;2022-12-08T06:46:13;14.20;;;11.63;;
323;SDS011;149;51.094;17.002;2022-12-08T06:48:46;15.40;;;11.52;;
323;SDS011;149;51.094;17.002;2022-12-08T06:51:14;16.80;;;12.30;;
323;SDS011;149;51.094;17.002;2022-12-08T06:53:44;18.50;;;13.05;;
323;SDS011;149;51.094;17.002;2022-12-08T06:56:13;17.10;;;12.38;;
323;SDS011;149;51.094;17.002;2022-12-08T06:58:44;15.73;;;12.63;;
323;SDS011;149;51.094;17.002;2022-12-08T07:01:18;21.13;;;14.02;;
323;SDS011;149;51.094;17.002;2022-12-08T07:03:45;14.85;;;12.40;;
323;SDS011;149;51.094;17.002;2022-12-08T07:06:14;17.73;;;12.23;;
323;SDS011;149;51.094;17.002;2022-12-08T07:08:43;15.40;;;11.48;;
323;SDS011;149;51.094;17.002;2022-12-08T07:11:11;19.75;;;13.02;;
323;SDS011;149;51.094;17.002;2022-12-08T07:13:46;14.35;;;10.70;;
323;SDS011;149;51.094;17.002;2022-12-08T07:16:14;15.85;;;12.85;;
323;SDS011;149;51.094;17.002;2022-12-08T07:18:47;15.07;;;12.52;;
323;SDS011;149;51.094;17.002;2022-12-08T07:21:14;15.15;;;13.05;;
323;SDS011;149;51.094;17.002;2022-12-08T07:23:46;13.30;;;11.25;;
323;SDS011;149;51.094;17.002;2022-12-08T07:26:22;14.75;;;12.40;;
323;SDS011;149;51.094;17.002;2022-12-08T07:28:50;13.82;;;11.55;;
323;SDS011;149;51.094;17.002;2022-12-08T07:31:18;15.32;;;11.82;;
323;SDS011;149;51.094;17.002;2022-12-08T07:33:47;15.18;;;11.52;;
323;SDS011;149;51.094;17.002;2022-12-08T07:36:16;18.25;;;12.63;;
323;SDS011;149;51.094;17.002;2022-12-08T07:38:44;15.57;;;12.23;;
323;SDS011;149;51.094;17.002;2022-12-08T07:41:12;20.08;;;12.52;;
323;SDS011;149;51.094;17.002;2022-12-08T07:43:41;18.08;;;14.07;;
323;SDS011;149;51.094;17.002;2022-12-08T07:46:10;17.27;;;12.75;;
323;SDS011;149;51.094;17.002;2022-12-08T07:48:39;16.33;;;12.07;;
323;SDS011;149;51.094;17.002;2022-12-08T07:51:06;17.67;;;14.23;;
323;SDS011;149;51.094;17.002;2022-12-08T07:53:37;16.55;;;11.57;;
323;SDS011;149;51.094;17.002;2022-12-08T07:56:08;13.23;;;11.75;;
323;SDS011;149;51.094;17.002;2022-12-08T07:58:36;18.02;;;12.10;;
323;SDS011;149;51.094;17.002;2022-12-08T08:01:03;13.88;;;11.00;;
323;SDS011;149;51.094;17.002;2022-12-08T08:03:31;16.15;;;10.80;;
323;SDS011;149;51.094;17.002;2022-12-08T08:06:02;20.08;;;12.60;;
323;SDS011;149;51.094;17.002;2022-12-08T08:08:29;12.85;;;9.90;;
323;SDS011;149;51.094;17.002;2022-12-08T08:10:57;14.05;;;10.10;;
323;SDS011;149;51.094;17.002;2022-12-08T08:13:24;12.27;;;10.00;;
323;SDS011;149;51.094;17.002;2022-12-08T08:15:51;18.50;;;12.40;;
323;SDS011;149;51.094;17.002;2022-12-08T08:18:18;31.95;;;20.33;;
323;SDS011;149;51.094;17.002;2022-12-08T08:20:45;24.80;;;16.38;;
323;SDS011;149;51.094;17.002;2022-12-08T08:23:12;14.85;;;11.55;;
323;SDS011;149;51.094;17.002;2022-12-08T08:25:39;10.85;;;9.75;;
323;SDS011;149;51.094;17.002;2022-12-08T08:28:06;13.27;;;10.13;;
323;SDS011;149;51.094;17.002;2022-12-08T08:30:33;13.60;;;11.23;;
323;SDS011;149;51.094;17.002;2022-12-08T08:33:00;13.90;;;9.70;;
323;SDS011;149;51.094;17.002;2022-12-08T08:35:27;11.05;;;8.73;;
323;SDS011;149;51.094;17.002;2022-12-08T08:37:54;10.75;;;9.63;;
323;SDS011;149;51.094;17.002;2022-12-08T08:40:21;9.20;;;7.55;;
323;SDS011;149;51.094;17.002;2022-12-08T08:42:48;12.05;;;9.95;;
323;SDS011;149;51.094;17.002;2022-12-08T08:45:15;13.85;;;9.18;;
323;SDS011;149;51.094;17.002;2022-12-08T08:47:42;15.02;;;9.23;;
323;SDS011;149;51.094;17.002;2022-12-08T08:50:09;14.02;;;9.52;;
323;SDS011;149;51.094;17.002;2022-12-08T08:52:36;11.77;;;7.60;;
323;SDS011;149;51.094;17.002;2022-12-08T08:55:03;11.38;;;8.63;;
323;SDS011;149;51.094;17.002;2022-12-08T08:57:30;11.70;;;8.40;;
323;SDS011;149;51.094;17.002;2022-12-08T08:59:58;9.48;;;7.07;;
323;SDS011;149;51.094;17.002;2022-12-08T09:02:25;12.23;;;8.43;;
323;SDS011;149;51.094;17.002;2022-12-08T09:04:52;11.93;;;9.20;;
323;SDS011;149;51.094;17.002;2022-12-08T09:07:19;10.95;;;7.10;;
323;SDS011;149;51.094;17.002;2022-12-08T09:09:46;9.05;;;7.90;;
323;SDS011;149;51.094;17.002;2022-12-08T09:12:13;9.60;;;7.90;;
323;SDS011;149;51.094;17.002;2022-12-08T09:14:39;10.88;;;9.07;;
323;SDS011;149;51.094;17.002;2022-12-08T09:17:06;11.52;;;8.25;;
323;SDS011;149;51.094;17.002;2022-12-08T09:19:34;8.23;;;7.32;;
323;SDS011;149;51.094;17.002;2022-12-08T09:22:01;9.75;;;8.32;;
323;SDS011;149;51.094;17.002;2022-12-08T09:24:31;10.15;;;6.80;;
323;SDS011;149;51.094;17.002;2022-12-08T09:26:58;7.85;;;6.50;;
323;SDS011;149;51.094;17.002;2022-12-08T09:29:25;11.73;;;7.53;;
323;SDS011;149;51.094;17.002;2022-12-08T09:32:00;7.30;;;6.63;;
323;SDS011;149;51.094;17.002;2022-12-08T09:34:27;8.13;;;7.32;;
323;SDS011;149;51.094;17.002;2022-12-08T09:36:57;10.68;;;8.35;;
323;SDS011;149;51.094;17.002;2022-12-08T09:39:24;13.98;;;6.28;;
323;SDS011;149;51.094;17.002;2022-12-08T09:42:01;8.75;;;6.03;;
323;SDS011;149;51.094;17.002;2022-12-08T09:44:45;5.53;;;4.93;;
323;SDS011;149;51.094;17.002;2022-12-08T09:47:21;4.72;;;4.28;;
323;SDS011;149;51.094;17.002;2022-12-08T09:50:02;8.35;;;5.50;;
323;SDS011;149;51.094;17.002;2022-12-08T09:52:35;7.32;;;5.13;;
323;SDS011;149;51.094;17.002;2022-12-08T09:55:14;8.20;;;5.88;;
323;SDS011;149;51.094;17.002;2022-12-08T09:57:53;8.48;;;5.85;;
323;SDS011;149;51.094;17.002;2022-12-08T10:00:27;6.60;;;4.90;;
323;SDS011;149;51.094;17.002;2022-12-08T10:02:54;8.13;;;6.60;;
323;SDS011;149;51.094;17.002;2022-12-08T10:05:23;16.90;;;7.30;;
323;SDS011;149;51.094;17.002;2022-12-08T10:07:58;16.77;;;7.15;;
323;SDS011;149;51.094;17.002;2022-12-08T10:10:41;8.52;;;6.20;;
323;SDS011;149;51.094;17.002;2022-12-08T10:16:03;6.15;;;5.65;;
323;SDS011;149;51.094;17.002;2022-12-08T10:19:10;11.25;;;7.35;;
323;SDS011;149;51.094;17.002;2022-12-08T10:21:42;10.77;;;6.50;;
323;SDS011;149;51.094;17.002;2022-12-08T10:24:12;9.75;;;6.72;;
323;SDS011;149;51.094;17.002;2022-12-08T10:26:51;12.93;;;5.20;;
323;SDS011;149;51.094;17.002;2022-12-08T10:29:20;7.53;;;6.13;;
323;SDS011;149;51.094;17.002;2022-12-08T10:31:46;9.38;;;5.85;;
323;SDS011;149;51.094;17.002;2022-12-08T10:34:15;7.75;;;6.10;;
323;SDS011;149;51.094;17.002;2022-12-08T10:36:51;9.48;;;6.03;;
323;SDS011;149;51.094;17.002;2022-12-08T10:39:38;10.45;;;6.78;;
323;SDS011;149;51.094;17.002;2022-12-08T10:44:46;9.20;;;6.53;;
323;SDS011;149;51.094;17.002;2022-12-08T10:47:25;13.20;;;7.20;;
323;SDS011;149;51.094;17.002;2022-12-08T10:52:55;15.68;;;7.90;;
323;SDS011;149;51.094;17.002;2022-12-08T10:55:39;10.85;;;6.63;;
323;SDS011;149;51.094;17.002;2022-12-08T10:58:24;8.20;;;6.43;;
323;SDS011;149;51.094;17.002;2022-12-08T11:00:56;13.02;;;7.22;;
323;SDS011;149;51.094;17.002;2022-12-08T11:03:28;9.88;;;6.95;;
323;SDS011;149;51.094;17.002;2022-12-08T11:05:58;7.70;;;5.97;;
323;SDS011;149;51.094;17.002;2022-12-08T11:08:42;8.20;;;6.35;;
323;SDS011;149;51.094;17.002;2022-12-08T11:11:17;14.40;;;7.90;;
323;SDS011;149;51.094;17.002;2022-12-08T11:13:54;8.70;;;7.20;;
323;SDS011;149;51.094;17.002;2022-12-08T11:16:21;11.02;;;8.55;;
323;SDS011;149;51.094;17.002;2022-12-08T11:18:54;8.10;;;7.30;;
323;SDS011;149;51.094;17.002;2022-12-08T11:21:29;14.43;;;8.18;;
323;SDS011;149;51.094;17.002;2022-12-08T11:24:23;11.30;;;6.53;;
323;SDS011;149;51.094;17.002;2022-12-08T11:29:28;12.23;;;8.18;;
323;SDS011;149;51.094;17.002;2022-12-08T11:31:58;12.93;;;7.85;;
323;SDS011;149;51.094;17.002;2022-12-08T11:37:04;9.63;;;7.25;;
323;SDS011;149;51.094;17.002;2022-12-08T11:39:44;12.48;;;8.27;;
323;SDS011;149;51.094;17.002;2022-12-08T11:42:14;8.23;;;7.20;;
323;SDS011;149;51.094;17.002;2022-12-08T11:44:50;11.52;;;7.53;;
323;SDS011;149;51.094;17.002;2022-12-08T11:50:01;12.07;;;6.88;;
323;SDS011;149;51.094;17.002;2022-12-08T11:52:46;12.30;;;7.38;;
323;SDS011;149;51.094;17.002;2022-12-08T11:55:25;13.50;;;7.13;;
323;SDS011;149;51.094;17.002;2022-12-08T11:58:22;8.20;;;7.40;;
323;SDS011;149;51.094;17.002;2022-12-08T12:01:23;8.88;;;6.53;;
323;SDS011;149;51.094;17.002;2022-12-08T12:06:43;8.00;;;7.18;;
323;SDS011;149;51.094;17.002;2022-12-08T12:09:30;9.45;;;7.95;;
323;SDS011;149;51.094;17.002;2022-12-08T12:12:16;8.27;;;6.50;;
323;SDS011;149;51.094;17.002;2022-12-08T12:21:04;10.65;;;8.40;;
323;SDS011;149;51.094;17.002;2022-12-08T12:26:17;12.95;;;9.73;;
323;SDS011;149;51.094;17.002;2022-12-08T12:28:49;9.82;;;8.35;;
323;SDS011;149;51.094;17.002;2022-12-08T12:31:28;13.60;;;9.73;;
323;SDS011;149;51.094;17.002;2022-12-08T12:34:30;14.57;;;9.55;;
323;SDS011;149;51.094;17.002;2022-12-08T12:37:14;16.88;;;9.90;;
323;SDS011;149;51.094;17.002;2022-12-08T12:39:59;10.73;;;8.50;;
323;SDS011;149;51.094;17.002;2022-12-08T12:53:04;22.80;;;8.32;;
323;SDS011;149;51.094;17.002;2022-12-08T12:55:58;11.68;;;7.75;;
323;SDS011;149;51.094;17.002;2022-12-08T13:03:43;11.52;;;8.15;;
323;SDS011;149;51.094;17.002;2022-12-08T13:06:32;10.15;;;8.00;;
323;SDS011;149;51.094;17.002;2022-12-08T13:09:18;12.10;;;7.72;;
323;SDS011;149;51.094;17.002;2022-12-08T13:11:51;25.80;;;8.98;;
323;SDS011;149;51.094;17.002;2022-12-08T13:17:00;13.10;;;8.75;;
323;SDS011;149;51.094;17.002;2022-12-08T13:19:30;12.80;;;9.98;;
323;SDS011;149;51.094;17.002;2022-12-08T13:21:59;9.63;;;7.40;;
323;SDS011;149;51.094;17.002;2022-12-08T13:24:32;10.55;;;8.25;;
323;SDS011;149;51.094;17.002;2022-12-08T13:29:30;11.63;;;8.75;;
323;SDS011;149;51.094;17.002;2022-12-08T13:39:55;14.73;;;9.20;;
323;SDS011;149;51.094;17.002;2022-12-08T13:48:14;14.75;;;9.88;;
323;SDS011;149;51.094;17.002;2022-12-08T13:51:17;12.52;;;9.90;;
323;SDS011;149;51.094;17.002;2022-12-08T13:54:17;13.40;;;9.27;;
323;SDS011;149;51.094;17.002;2022-12-08T13:57:26;15.60;;;11.27;;
323;SDS011;149;51.094;17.002;2022-12-08T14:00:14;16.98;;;11.52;;
323;SDS011;149;51.094;17.002;2022-12-08T14:02:45;13.43;;;9.70;;
323;SDS011;149;51.094;17.002;2022-12-08T14:05:14;12.55;;;10.57;;
323;SDS011;149;51.094;17.002;2022-12-08T14:07:50;13.05;;;8.95;;
323;SDS011;149;51.094;17.002;2022-12-08T14:10:21;14.35;;;9.57;;
323;SDS011;149;51.094;17.002;2022-12-08T14:12:59;19.92;;;10.73;;
323;SDS011;149;51.094;17.002;2022-12-08T14:15:30;14.00;;;10.98;;
323;SDS011;149;51.094;17.002;2022-12-08T14:18:04;22.33;;;11.95;;
323;SDS011;149;51.094;17.002;2022-12-08T14:20:46;14.82;;;12.40;;
323;SDS011;149;51.094;17.002;2022-12-08T14:23:49;17.63;;;12.93;;
323;SDS011;149;51.094;17.002;2022-12-08T14:26:15;15.55;;;11.30;;
323;SDS011;149;51.094;17.002;2022-12-08T14:28:43;19.38;;;10.82;;
323;SDS011;149;51.094;17.002;2022-12-08T14:31:10;16.40;;;10.65;;
323;SDS011;149;51.094;17.002;2022-12-08T14:33:40;20.42;;;12.65;;
323;SDS011;149;51.094;17.002;2022-12-08T14:36:07;14.30;;;10.70;;
323;SDS011;149;51.094;17.002;2022-12-08T14:38:36;15.02;;;12.70;;
323;SDS011;149;51.094;17.002;2022-12-08T14:41:04;14.70;;;12.82;;
323;SDS011;149;51.094;17.002;2022-12-08T14:43:34;16.45;;;13.02;;
323;SDS011;149;51.094;17.002;2022-12-08T14:46:03;20.65;;;12.40;;
323;SDS011;149;51.094;17.002;2022-12-08T14:48:46;16.98;;;12.02;;
323;SDS011;149;51.094;17.002;2022-12-08T14:56:25;16.20;;;12.95;;
323;SDS011;149;51.094;17.002;2022-12-08T15:01:51;16.92;;;12.98;;
323;SDS011;149;51.094;17.002;2022-12-08T15:04:36;16.40;;;13.07;;
323;SDS011;149;51.094;17.002;2022-12-08T15:07:12;24.45;;;14.15;;
323;SDS011;149;51.094;17.002;2022-12-08T15:09:43;14.90;;;12.48;;
323;SDS011;149;51.094;17.002;2022-12-08T15:17:49;25.95;;;14.27;;
323;SDS011;149;51.094;17.002;2022-12-08T15:20:29;19.98;;;13.07;;
323;SDS011;149;51.094;17.002;2022-12-08T15:23:04;18.92;;;13.07;;
323;SDS011;149;51.094;17.002;2022-12-08T15:25:40;20.27;;;14.50;;
323;SDS011;149;51.094;17.002;2022-12-08T15:28:26;26.00;;;13.50;;
323;SDS011;149;51.094;17.002;2022-12-08T15:30:56;24.30;;;16.70;;
323;SDS011;149;51.094;17.002;2022-12-08T15:33:24;20.65;;;14.05;;
323;SDS011;149;51.094;17.002;2022-12-08T15:35:52;24.25;;;15.82;;
323;SDS011;149;51.094;17.002;2022-12-08T15:38:21;18.67;;;14.00;;
323;SDS011;149;51.094;17.002;2022-12-08T15:40:51;22.42;;;13.00;;
323;SDS011;149;51.094;17.002;2022-12-08T15:43:19;20.08;;;14.25;;
323;SDS011;149;51.094;17.002;2022-12-08T15:45:46;21.20;;;14.20;;
323;SDS011;149;51.094;17.002;2022-12-08T15:48:24;24.13;;;15.68;;
323;SDS011;149;51.094;17.002;2022-12-08T15:50:54;21.23;;;16.90;;
323;SDS011;149;51.094;17.002;2022-12-08T15:53:22;22.73;;;14.98;;
323;SDS011;149;51.094;17.002;2022-12-08T15:55:51;20.02;;;14.70;;
323;SDS011;149;51.094;17.002;2022-12-08T15:58:39;29.70;;;17.15;;
323;SDS011;149;51.094;17.002;2022-12-08T16:01:23;18.67;;;14.20;;
323;SDS011;149;51.094;17.002;2022-12-08T16:03:51;23.55;;;14.70;;
323;SDS011;149;51.094;17.002;2022-12-08T16:06:38;27.02;;;20.25;;
323;SDS011;149;51.094;17.002;2022-12-08T16:09:29;19.08;;;14.80;;
323;SDS011;149;51.094;17.002;2022-12-08T16:12:05;27.20;;;15.98;;
323;SDS011;149;51.094;17.002;2022-12-08T16:15:41;25.45;;;17.45;;
323;SDS011;149;51.094;17.002;2022-12-08T16:18:26;21.60;;;16.40;;
323;SDS011;149;51.094;17.002;2022-12-08T16:20:57;24.50;;;16.33;;
323;SDS011;149;51.094;17.002;2022-12-08T16:23:44;26.65;;;15.48;;
323;SDS011;149;51.094;17.002;2022-12-08T16:26:18;24.63;;;15.65;;
323;SDS011;149;51.094;17.002;2022-12-08T16:29:07;26.08;;;15.05;;
323;SDS011;149;51.094;17.002;2022-12-08T16:31:37;24.90;;;17.95;;
323;SDS011;149;51.094;17.002;2022-12-08T16:34:04;21.15;;;15.95;;
323;SDS011;149;51.094;17.002;2022-12-08T16:36:30;22.98;;;15.75;;
323;SDS011;149;51.094;17.002;2022-12-08T16:38:57;24.90;;;15.65;;
323;SDS011;149;51.094;17.002;2022-12-08T16:41:24;22.48;;;15.60;;
323;SDS011;149;51.094;17.002;2022-12-08T16:44:10;28.17;;;16.92;;
323;SDS011;149;51.094;17.002;2022-12-08T16:46:37;21.67;;;14.63;;
323;SDS011;149;51.094;17.002;2022-12-08T16:49:04;25.77;;;16.30;;
323;SDS011;149;51.094;17.002;2022-12-08T16:51:34;20.15;;;14.65;;
323;SDS011;149;51.094;17.002;2022-12-08T16:54:01;27.27;;;18.13;;
323;SDS011;149;51.094;17.002;2022-12-08T16:56:28;25.73;;;15.35;;
323;SDS011;149;51.094;17.002;2022-12-08T16:58:59;26.50;;;16.70;;
323;SDS011;149;51.094;17.002;2022-12-08T17:01:29;21.77;;;13.73;;
323;SDS011;149;51.094;17.002;2022-12-08T17:03:57;28.25;;;16.00;;
323;SDS011;149;51.094;17.002;2022-12-08T17:06:44;24.20;;;17.27;;
323;SDS011;149;51.094;17.002;2022-12-08T17:09:11;22.40;;;15.45;;
323;SDS011;149;51.094;17.002;2022-12-08T17:11:39;21.85;;;17.00;;
323;SDS011;149;51.094;17.002;2022-12-08T17:14:09;24.52;;;14.90;;
323;SDS011;149;51.094;17.002;2022-12-08T17:16:38;32.20;;;17.23;;
323;SDS011;149;51.094;17.002;2022-12-08T17:19:05;25.60;;;17.08;;
323;SDS011;149;51.094;17.002;2022-12-08T17:21:33;24.65;;;17.95;;
323;SDS011;149;51.094;17.002;2022-12-08T17:24:00;27.75;;;19.23;;
323;SDS011;149;51.094;17.002;2022-12-08T17:26:27;28.67;;;18.55;;
323;SDS011;149;51.094;17.002;2022-12-08T17:28:54;33.83;;;20.95;;
323;SDS011;149;51.094;17.002;2022-12-08T17:31:29;30.52;;;20.63;;
323;SDS011;149;51.094;17.002;2022-12-08T17:33:58;26.48;;;19.80;;